Tylertown, MS

11:45 PM CDT on May 06, 2015 (GMT -0500)
McComb-Pike County-Lewis | | Change Station
CLOSE
Current Station
Airport
Location: McComb,
Elevation: 410 ft
Nearby Weather Stations

Elev 410 ft 31.18 °N, 90.47 °W | Updated 52 minutes ago

Clear
Clear
70 °F
Feels Like 70 °F
N
5
Wind Variable Wind from ESE

Today
High -- | Low -- °F
--% Chance of Precip.
Yesterday
High -- | Low -- °F
Precip. -- in
6:11 AM 7:43 PM
Waning Gibbous, 90% visible
Pressure 30.05 in
Visibility 8.0 miles
Clouds Clear
Dew Point 66 °F
Humidity 87%
Rainfall 0.00 in
Snow Depth Not available.
UV 0 out of 12
Pollen 6.40 out of 12
Air Quality Not available.
Flu Activity No Activity
METAR KMCB 070353Z AUTO 11004KT 8SM CLR 21/19 A3006 RMK AO2 SLP174 T02110189

More Conditions Fewer Conditions

Pressure 30.05 in
Visibility 8.0 miles
Clouds Clear
Dew Point 66 °F
Humidity 87%
Rainfall 0.00 in
Snow Depth Not available.
UV 0 out of 12
Pollen 6.40 out of 12
Air Quality Not available.
Flu Activity No Activity
METAR KMCB 070353Z AUTO 11004KT 8SM CLR 21/19 A3006 RMK AO2 SLP174 T02110189

More Conditions Fewer Conditions

10-Day Weather Forecast

Almanac

Astronomy

May. 06, 2015 Rise Set
Actual Time
Civil Twilight
Nautical Twilight
Astronomical Twilight
Moon
Length of Visible Light
Length of Day
Tomorrow will be .
, % of the Moon is Illuminated

Today's Extremes

State Highs State Lows

Community

WunderPhotos

Upload Photos

1,819,121 photos uploaded!

WunderBlogs® & News

Nearby

Air Quality

  Air Quality AQ Index Pollutant
Not available.

Snow Depth

Station Depth Elevation

Earthquake Activity

City Distance Mag. Time & Date
Minimum magnitude displayed is 2.5.

Coastal Water Temperatures

Place Temperature

Stations

Nearby Weather Stations

Station Location Temp. Windchill Dew Point Humidity Wind Precip. Elev Updated Type